INFORMACIÓN METAR y TAF
METAR FOR LYBE
ADDS - METARS form results

(2343 UTC 17 June 2021)
Data provider http://aviationweather.gov/metar/data/
 
METAR text: LYBE 172330Z 21005KT CAVOK 22/15 Q1017 NOSIG
Conditions at: LYBE (BELGRADE/SURCIN , RS) observed 2330 UTC 17 June 2021
Temperature: 22.0°C (72°F)
Dewpoint: 15.0°C (59°F) [RH = 65%]
Pressure (altimeter): 30.03 inches Hg (1017.0 mb)
Winds: from the SSW (210 degrees) at 6 MPH (5 knots; 2.6 m/s)
Visibility: 6 or more miles (10+ km)
Ceiling: ceiling and visibility are OK
Clouds: unknown
Weather: no significant weather observed at this time

METAR text: LYBE 172300Z 18005KT CAVOK 22/15 Q1017 NOSIG
Conditions at: LYBE (BELGRADE/SURCIN , RS) observed 2300 UTC 17 June 2021
Temperature: 22.0°C (72°F)
Dewpoint: 15.0°C (59°F) [RH = 65%]
Pressure (altimeter): 30.03 inches Hg (1017.0 mb)
Winds: from the S (180 degrees) at 6 MPH (5 knots; 2.6 m/s)
Visibility: 6 or more miles (10+ km)
Ceiling: ceiling and visibility are OK
Clouds: unknown
Weather: no significant weather observed at this time

Forecast for: LYBE (BELGRADE/SURCIN , RS)
Text: TAF LYBE 172300Z 1800/1824 VRB02KT CAVOK TX32/1813Z TN17/1803Z
Forecast period: 0000 UTC 18 June 2021 to 0000 UTC 19 June 2021
Forecast type: FROM: standard forecast or significant change
Winds: variable direction winds at 2 MPH (2 knots; 1.0 m/s)
Visibility: 6 or more miles (10+ km)
Ceiling: unknown
Clouds: missing
Weather: no significant weather forecast for this period

 MAPA DE AEROPUERTO

 INFORMACIÓN DE PISTA
Pista 12 Longitud 11155 ft Ancho 148 ft
Elevación 318 ft Umbral desplazado 0 ft Rumbo de pista 122
Pista 30 Longitud 11155 ft Ancho 148 ft
Elevación 335 ft Umbral desplazado 1312 ft Rumbo de pista 302

 FRECUANCIAS DEL AEROPUERTO
Tipo APP Nombre APP Frecuencia 119.1 MHZ
Tipo ATIS Nombre INFO Frecuencia 122.925 MHZ
Tipo TWR Nombre TWR Frecuencia 118.1 MHZ

 RADIO AYUDAS DEL AEROPUERTO
Tipo VOR-DME Nombre Beograd Frecuencia 112300 KHZ
Tipo NDB Nombre Beograd Frecuencia 316 KHZ
Tipo NDB Nombre Beograd Frecuencia 380 KHZ
Tipo NDB Nombre Beograd Frecuencia 355 KHZ



Powered by Virtual Airlines Manager [v2.6.2]